Time;durP1;ratioP1;P1;durP2;ratioP2;P2;SDS_P1;SDS_P2;PMS_P1;PMS_P2;Temp;Humidity;BMP_temperature;BMP_pressure;BME280_temperature;BME280_humidity;BME280_pressure;Samples;Min_cycle;Max_cycle;Signal;HPM_P1;HPM_P2
2023/08/12 00:00:32;;;;;;;0.43;0.28;;;24.80;77.40;;;;;;6313927;28;20058;-49
2023/08/12 00:03:36;;;;;;;0.25;0.20;;;24.70;79.90;;;;;;6313506;28;20032;-54
2023/08/12 00:06:37;;;;;;;0.47;0.30;;;24.80;79.90;;;;;;6313691;28;20067;-51
2023/08/12 00:09:39;;;;;;;0.20;0.20;;;24.70;80.00;;;;;;6312375;28;20048;-54
2023/08/12 00:12:40;;;;;;;0.38;0.20;;;24.70;79.90;;;;;;6313072;28;20047;-52
2023/08/12 00:15:44;;;;;;;0.30;0.20;;;24.40;79.60;;;;;;6312634;28;20048;-53
2023/08/12 00:18:45;;;;;;;0.47;0.30;;;24.40;79.60;;;;;;6313894;28;20040;-52
2023/08/12 00:21:47;;;;;;;0.50;0.20;;;24.30;79.60;;;;;;6312959;28;20118;-52
2023/08/12 00:24:48;;;;;;;0.40;0.20;;;25.40;80.20;;;;;;6312779;28;20040;-51
2023/08/12 00:27:50;;;;;;;0.40;0.20;;;24.90;79.80;;;;;;6294729;28;20036;-50
2023/08/12 00:30:52;;;;;;;0.22;0.22;;;24.60;79.60;;;;;;6312923;28;20040;-54
2023/08/12 00:33:53;;;;;;;0.50;0.20;;;24.70;79.80;;;;;;6313449;28;20040;-51
2023/08/12 00:36:55;;;;;;;0.20;0.20;;;24.70;79.70;;;;;;6313539;28;20075;-52
2023/08/12 00:39:59;;;;;;;0.17;0.15;;;24.70;79.70;;;;;;6313221;28;20042;-50
2023/08/12 00:43:03;;;;;;;0.30;0.20;;;24.70;79.50;;;;;;6313564;28;20071;-51
2023/08/12 00:46:06;;;;;;;0.20;0.20;;;24.70;79.50;;;;;;6313412;28;20093;-48
2023/08/12 00:49:11;;;;;;;0.30;0.20;;;24.70;79.40;;;;;;6313168;28;20678;-52
2023/08/12 00:52:13;;;;;;;0.30;0.20;;;24.80;79.40;;;;;;6295454;28;20040;-51
2023/08/12 00:55:15;;;;;;;0.20;0.10;;;24.70;79.30;;;;;;6311857;28;20040;-51
2023/08/12 00:58:17;;;;;;;0.10;0.10;;;24.80;79.40;;;;;;6312550;28;20062;-52
2023/08/12 01:01:21;;;;;;;0.40;0.20;;;24.70;79.00;;;;;;6313040;28;20085;-50
2023/08/12 01:04:23;;;;;;;0.10;0.10;;;24.70;79.20;;;;;;6313187;28;20032;-51
2023/08/12 01:07:25;;;;;;;0.15;0.10;;;24.80;79.30;;;;;;6311535;28;20032;-52
2023/08/12 01:10:36;;;;;;;0.10;0.10;;;24.70;79.20;;;;;;6309035;28;20039;-51
2023/08/12 01:13:47;;;;;;;0.03;0.03;;;24.70;79.00;;;;;;6307200;28;20040;-50
2023/08/12 01:16:56;;;;;;;0.10;0.10;;;24.40;78.70;;;;;;6307223;28;20040;-51
2023/08/12 01:20:00;;;;;;;0.10;0.10;;;24.80;78.90;;;;;;6304098;28;20042;-52
2023/08/12 01:23:13;;;;;;;0.10;0.10;;;24.70;78.80;;;;;;6309101;28;20044;-50
2023/08/12 01:26:14;;;;;;;0.15;0.10;;;24.10;78.40;;;;;;6312602;28;20048;-51
2023/08/12 01:29:18;;;;;;;0.10;0.10;;;24.70;79.00;;;;;;6312687;28;20040;-53
2023/08/12 01:32:30;;;;;;;0.20;0.10;;;24.70;78.70;;;;;;6312761;28;20066;-52
2023/08/12 01:35:42;;;;;;;0.10;0.10;;;24.60;78.50;;;;;;6295120;28;20040;-48
2023/08/12 01:38:51;;;;;;;0.10;0.10;;;24.70;78.50;;;;;;6312133;28;20551;-48
2023/08/12 01:41:55;;;;;;;0.25;0.15;;;24.40;78.30;;;;;;6315567;28;20044;-50
2023/08/12 01:44:57;;;;;;;0.10;0.10;;;24.20;78.10;;;;;;6316250;28;20039;-52
2023/08/12 01:48:00;;;;;;;0.20;0.20;;;24.30;78.20;;;;;;6315877;28;20032;-50
2023/08/12 01:51:02;;;;;;;0.10;0.10;;;24.70;78.40;;;;;;6316040;28;20453;-51
2023/08/12 01:54:05;;;;;;;0.22;0.20;;;24.60;78.40;;;;;;6298318;28;20078;-50
2023/08/12 01:57:07;;;;;;;0.20;0.20;;;24.70;78.10;;;;;;6315663;28;20044;-52
2023/08/12 02:00:09;;;;;;;0.10;0.10;;;24.70;78.30;;;;;;6315653;28;20506;-50
2023/08/12 02:03:20;;;;;;;0.10;0.10;;;24.60;78.10;;;;;;6314462;28;20073;-51
2023/08/12 02:06:21;;;;;;;0.10;0.10;;;24.60;78.10;;;;;;6315278;28;20493;-50
2023/08/12 02:09:24;;;;;;;0.10;0.10;;;24.60;78.10;;;;;;6315756;28;20047;-52
2023/08/12 02:12:28;;;;;;;0.20;0.20;;;24.50;78.10;;;;;;6315393;28;20040;-48
2023/08/12 02:15:30;;;;;;;0.10;0.10;;;24.60;75.40;;;;;;6315837;28;20036;-52
2023/08/12 02:18:31;;;;;;;0.20;0.20;;;24.20;77.80;;;;;;6315276;28;20036;-50
2023/08/12 02:21:33;;;;;;;0.20;0.20;;;24.60;78.00;;;;;;6314896;28;20458;-51
2023/08/12 02:24:35;;;;;;;0.25;0.10;;;24.70;78.10;;;;;;6315454;28;20489;-51
2023/08/12 02:27:39;;;;;;;0.10;0.10;;;24.30;77.60;;;;;;6315642;28;20044;-53
2023/08/12 02:30:42;;;;;;;0.20;0.10;;;24.50;77.70;;;;;;6315444;28;20032;-49
2023/08/12 02:33:44;;;;;;;0.20;0.20;;;24.50;77.60;;;;;;6315055;28;20040;-50
2023/08/12 02:36:46;;;;;;;0.10;0.10;;;24.70;77.80;;;;;;6308987;28;20499;-49
2023/08/12 02:39:48;;;;;;;0.20;0.20;;;24.10;77.30;;;;;;6289246;28;20558;-51
2023/08/12 02:42:50;;;;;;;0.10;0.10;;;24.70;77.80;;;;;;6294199;28;20094;-49
2023/08/12 02:45:53;;;;;;;0.10;0.10;;;24.10;77.30;;;;;;6294263;28;21112;-53
2023/08/12 02:48:55;;;;;;;0.10;0.10;;;24.60;77.50;;;;;;6295325;28;20063;-47
2023/08/12 02:51:56;;;;;;;0.22;0.22;;;24.50;77.40;;;;;;6294853;28;20526;-49
2023/08/12 02:55:01;;;;;;;0.10;0.10;;;24.60;77.40;;;;;;6277748;28;20044;-49
2023/08/12 02:58:06;;;;;;;0.15;0.10;;;24.50;77.00;;;;;;6294762;28;20598;-49
2023/08/12 03:01:08;;;;;;;0.20;0.20;;;24.70;77.10;;;;;;6277386;28;20111;-52
2023/08/12 03:04:09;;;;;;;0.17;0.10;;;24.50;77.50;;;;;;6297253;28;20940;-54
2023/08/12 03:07:11;;;;;;;0.30;0.13;;;24.50;77.10;;;;;;6297244;28;20093;-53
2023/08/12 03:10:14;;;;;;;0.10;0.10;;;24.50;76.90;;;;;;6295073;28;20576;-54
2023/08/12 03:13:15;;;;;;;0.20;0.20;;;23.50;76.50;;;;;;6292611;28;20111;-55
2023/08/12 03:16:17;;;;;;;0.20;0.10;;;24.20;76.70;;;;;;6294475;28;20123;-53
2023/08/12 03:19:21;;;;;;;0.10;0.10;;;24.70;76.90;;;;;;6294107;28;20476;-54
2023/08/12 03:22:24;;;;;;;0.15;0.10;;;24.50;76.40;;;;;;6294239;28;20044;-53
2023/08/12 03:25:27;;;;;;;0.22;0.20;;;24.50;76.70;;;;;;6295294;28;20032;-54
2023/08/12 03:28:28;;;;;;;0.10;0.10;;;24.50;76.70;;;;;;6294052;28;20218;-52
2023/08/12 03:31:32;;;;;;;0.10;0.10;;;24.50;76.60;;;;;;6294910;28;20036;-55
2023/08/12 03:34:34;;;;;;;0.10;0.10;;;24.30;76.40;;;;;;6294418;28;20583;-52
2023/08/12 03:37:37;;;;;;;0.17;0.17;;;24.50;76.90;;;;;;6294581;28;20111;-54
2023/08/12 03:40:42;;;;;;;0.20;0.20;;;23.90;76.30;;;;;;6294649;28;20229;-53
2023/08/12 03:43:46;;;;;;;0.17;0.10;;;24.50;76.10;;;;;;6293345;28;20040;-54
2023/08/12 03:46:49;;;;;;;0.20;0.17;;;24.30;76.60;;;;;;6294165;28;20043;-55
2023/08/12 03:49:51;;;;;;;0.10;0.10;;;24.20;76.00;;;;;;6292849;28;20042;-55
2023/08/12 03:52:54;;;;;;;0.20;0.20;;;24.40;76.00;;;;;;6292902;28;20047;-55
2023/08/12 03:55:59;;;;;;;0.10;0.10;;;24.30;76.00;;;;;;6293157;28;20532;-55
2023/08/12 03:59:02;;;;;;;0.20;0.20;;;24.50;76.10;;;;;;6292876;28;20032;-55
2023/08/12 04:02:04;;;;;;;0.15;0.13;;;24.40;76.30;;;;;;6275030;28;20032;-54
2023/08/12 04:05:06;;;;;;;0.20;0.20;;;24.40;75.60;;;;;;6293890;28;20115;-52
2023/08/12 04:08:08;;;;;;;0.20;0.20;;;24.20;75.70;;;;;;6293684;28;20395;-55
2023/08/12 04:11:10;;;;;;;0.40;0.17;;;24.00;75.60;;;;;;6293841;28;20063;-53
2023/08/12 04:14:15;;;;;;;0.25;0.10;;;23.90;75.40;;;;;;6293678;28;20098;-54
2023/08/12 04:17:18;;;;;;;0.20;0.20;;;24.40;75.70;;;;;;6293495;28;20107;-54
2023/08/12 04:20:20;;;;;;;0.10;0.10;;;24.40;76.10;;;;;;6293303;28;20040;-55
2023/08/12 04:23:21;;;;;;;0.20;0.20;;;24.50;75.50;;;;;;6292848;28;20059;-55
2023/08/12 04:26:24;;;;;;;0.15;0.10;;;24.30;75.70;;;;;;6291988;28;20044;-55
2023/08/12 04:29:25;;;;;;;0.15;0.10;;;24.10;75.40;;;;;;6291229;28;20036;-55
2023/08/12 04:32:27;;;;;;;0.22;0.20;;;24.20;75.50;;;;;;6293214;28;20029;-54
2023/08/12 04:35:32;;;;;;;0.75;0.20;;;24.30;75.70;;;;;;6293583;28;20044;-55
2023/08/12 04:38:35;;;;;;;0.40;0.35;;;24.00;75.40;;;;;;6273394;28;20044;-53
2023/08/12 04:41:41;;;;;;;0.40;0.20;;;24.20;75.60;;;;;;6289527;28;20123;-54
2023/08/12 04:44:43;;;;;;;0.20;0.20;;;24.10;75.10;;;;;;6290800;28;20430;-54
2023/08/12 04:47:44;;;;;;;0.65;0.32;;;24.30;75.00;;;;;;6291724;28;20103;-53
2023/08/12 04:50:49;;;;;;;0.30;0.30;;;24.00;75.40;;;;;;6293044;28;20044;-54
2023/08/12 04:53:53;;;;;;;0.20;0.20;;;24.20;75.40;;;;;;6292918;28;20116;-55
2023/08/12 04:56:59;;;;;;;0.25;0.25;;;24.30;75.10;;;;;;6292725;28;20036;-54
2023/08/12 05:00:01;;;;;;;0.38;0.25;;;23.90;74.70;;;;;;6291919;28;20119;-54
2023/08/12 05:03:04;;;;;;;0.30;0.20;;;24.30;74.90;;;;;;6282132;28;20036;-54
2023/08/12 05:06:05;;;;;;;0.30;0.30;;;24.10;74.50;;;;;;6271935;28;20263;-54
2023/08/12 05:09:08;;;;;;;0.32;0.20;;;24.30;74.70;;;;;;6277366;28;20040;-55
2023/08/12 05:12:12;;;;;;;0.35;0.30;;;24.20;74.60;;;;;;6277093;28;20510;-55
2023/08/12 05:15:15;;;;;;;0.60;0.38;;;24.10;74.70;;;;;;6281943;28;20047;-54
2023/08/12 05:18:17;;;;;;;0.40;0.32;;;23.90;74.20;;;;;;6284042;28;20063;-54
2023/08/12 05:21:22;;;;;;;0.30;0.30;;;24.20;74.30;;;;;;6282849;28;20044;-53
2023/08/12 05:24:25;;;;;;;0.50;0.30;;;24.10;74.40;;;;;;6281673;28;20036;-54
2023/08/12 05:27:27;;;;;;;0.60;0.30;;;24.30;74.80;;;;;;6282741;28;20047;-54
2023/08/12 05:30:28;;;;;;;0.20;0.20;;;24.20;74.10;;;;;;6285678;28;20093;-53
2023/08/12 05:33:30;;;;;;;0.43;0.30;;;24.20;74.30;;;;;;6284718;28;20044;-50
2023/08/12 05:36:31;;;;;;;0.43;0.32;;;23.90;73.80;;;;;;6284617;28;20044;-49
2023/08/12 05:39:33;;;;;;;0.40;0.38;;;24.10;74.00;;;;;;6283962;28;20040;-48
2023/08/12 05:42:35;;;;;;;0.52;0.30;;;24.20;73.80;;;;;;6282178;28;20040;-52
2023/08/12 05:45:37;;;;;;;0.30;0.30;;;24.20;74.20;;;;;;6282765;28;20028;-48
2023/08/12 05:48:38;;;;;;;0.65;0.28;;;23.70;73.60;;;;;;6281624;28;20040;-51
2023/08/12 05:51:41;;;;;;;0.40;0.30;;;23.90;73.60;;;;;;6283904;28;20118;-50
2023/08/12 05:54:42;;;;;;;0.40;0.30;;;24.00;74.10;;;;;;6280729;28;20044;-51
2023/08/12 05:57:44;;;;;;;0.70;0.30;;;24.00;73.80;;;;;;6280595;28;20063;-49
2023/08/12 06:00:47;;;;;;;0.38;0.30;;;24.10;73.30;;;;;;6284283;28;20074;-47
2023/08/12 06:03:49;;;;;;;0.32;0.30;;;24.10;73.40;;;;;;6279143;28;20036;-52
2023/08/12 06:06:50;;;;;;;0.45;0.30;;;24.00;73.20;;;;;;6286534;28;20040;-49
2023/08/12 06:11:29;;;;;;;0.73;0.30;;;24.00;87.00;;;;;;6440243;27;20317;-51
2023/08/12 06:14:30;;;;;;;1.10;0.20;;;24.00;74.30;;;;;;6417142;27;20336;-52
2023/08/12 06:17:35;;;;;;;0.40;0.30;;;24.20;74.20;;;;;;6416055;27;20125;-55
2023/08/12 06:20:36;;;;;;;0.77;0.38;;;24.10;74.10;;;;;;6416714;27;20044;-52
2023/08/12 06:23:38;;;;;;;0.52;0.40;;;24.00;74.00;;;;;;6416304;27;20511;-51
2023/08/12 06:26:42;;;;;;;1.75;0.50;;;23.60;73.70;;;;;;6416910;27;20404;-52
2023/08/12 06:29:43;;;;;;;0.60;0.30;;;24.20;74.50;;;;;;6418835;27;20031;-51
2023/08/12 06:32:45;;;;;;;0.50;0.40;;;24.00;74.00;;;;;;6418084;27;20109;-53
2023/08/12 06:35:48;;;;;;;1.08;0.32;;;25.30;75.30;;;;;;6419066;27;20456;-52
2023/08/12 06:38:55;;;;;;;0.50;0.35;;;24.10;74.30;;;;;;6416520;27;20107;-54
2023/08/12 06:41:58;;;;;;;0.38;0.38;;;24.00;74.50;;;;;;6417740;27;20124;-53
2023/08/12 06:45:00;;;;;;;0.57;0.30;;;24.20;74.10;;;;;;6418413;27;20034;-53
2023/08/12 06:48:02;;;;;;;0.38;0.25;;;24.20;73.10;;;;;;6418748;27;20400;-50
2023/08/12 06:51:10;;;;;;;0.40;0.35;;;24.10;72.70;;;;;;6416945;27;20079;-52
2023/08/12 06:54:12;;;;;;;0.45;0.30;;;24.10;72.90;;;;;;6416304;27;20051;-51
2023/08/12 06:57:15;;;;;;;0.77;0.50;;;24.00;73.30;;;;;;6411345;27;20087;-50
2023/08/12 07:00:16;;;;;;;0.82;0.35;;;24.20;73.20;;;;;;6390762;27;20042;-53
2023/08/12 07:03:18;;;;;;;0.50;0.40;;;24.20;73.00;;;;;;6390098;27;20652;-53
2023/08/12 07:06:19;;;;;;;0.50;0.30;;;23.40;72.20;;;;;;6390487;27;20752;-51
2023/08/12 07:09:21;;;;;;;0.50;0.40;;;24.00;72.30;;;;;;6388965;27;20033;-51
2023/08/12 07:12:23;;;;;;;0.52;0.40;;;24.00;72.30;;;;;;6391194;27;20031;-51
2023/08/12 07:15:24;;;;;;;0.95;0.40;;;24.10;72.10;;;;;;6391274;27;20039;-53
2023/08/12 07:18:26;;;;;;;0.70;0.40;;;24.20;72.60;;;;;;6391165;27;20082;-53
2023/08/12 07:21:27;;;;;;;0.40;0.40;;;24.00;71.90;;;;;;6381373;27;20091;-52
2023/08/12 07:24:29;;;;;;;0.60;0.32;;;24.20;72.10;;;;;;6373844;27;20038;-52
2023/08/12 07:27:31;;;;;;;0.70;0.50;;;23.70;71.40;;;;;;6374190;27;20043;-54
2023/08/12 07:30:34;;;;;;;0.50;0.30;;;24.20;72.20;;;;;;6374496;27;20039;-54
2023/08/12 07:33:36;;;;;;;0.50;0.50;;;24.20;71.30;;;;;;6374372;27;20088;-50
2023/08/12 07:36:37;;;;;;;0.55;0.40;;;24.30;71.40;;;;;;6373321;27;20027;-52
2023/08/12 07:39:39;;;;;;;0.50;0.40;;;24.10;71.20;;;;;;6374197;27;20083;-52
2023/08/12 07:42:41;;;;;;;0.50;0.45;;;24.10;71.80;;;;;;6373966;27;20047;-53
2023/08/12 07:45:45;;;;;;;0.45;0.30;;;24.20;70.90;;;;;;6373887;27;20572;-53
2023/08/12 07:48:52;;;;;;;0.82;0.40;;;24.20;70.80;;;;;;6373697;27;20031;-53
2023/08/12 07:51:54;;;;;;;0.32;0.30;;;23.90;70.50;;;;;;6373513;27;20031;-53
2023/08/12 07:54:55;;;;;;;0.73;0.38;;;23.70;70.40;;;;;;6373601;27;20034;-55
2023/08/12 07:58:00;;;;;;;0.93;0.40;;;24.00;70.20;;;;;;6372314;27;20037;-54
2023/08/12 08:01:01;;;;;;;0.50;0.28;;;24.30;67.70;;;;;;6374025;27;20267;-55
2023/08/12 08:04:03;;;;;;;0.77;0.60;;;24.20;70.30;;;;;;6374351;27;20030;-54
2023/08/12 08:07:05;;;;;;;0.85;0.47;;;24.20;70.30;;;;;;6372632;27;20698;-56
2023/08/12 08:10:08;;;;;;;1.23;0.40;;;23.70;69.90;;;;;;6372476;27;20035;-55
2023/08/12 08:13:11;;;;;;;0.70;0.60;;;24.20;69.90;;;;;;6373414;27;20039;-54
2023/08/12 08:16:12;;;;;;;0.73;0.43;;;24.20;69.80;;;;;;6372252;27;20064;-57
2023/08/12 08:19:14;;;;;;;0.38;0.38;;;24.10;69.90;;;;;;6373886;27;20126;-54
2023/08/12 08:22:15;;;;;;;0.80;0.50;;;24.20;69.80;;;;;;6370639;27;20618;-56
2023/08/12 08:25:17;;;;;;;2.15;0.63;;;24.20;69.70;;;;;;6374223;27;20035;-52
2023/08/12 08:28:19;;;;;;;0.75;0.60;;;24.20;70.00;;;;;;6376170;27;20035;-53
2023/08/12 08:31:20;;;;;;;1.98;0.93;;;24.20;69.40;;;;;;6378570;27;20054;-53
2023/08/12 08:34:22;;;;;;;1.15;0.40;;;24.20;69.10;;;;;;6379496;27;20459;-52
2023/08/12 08:37:23;;;;;;;2.60;0.50;;;24.20;69.50;;;;;;6376311;27;20037;-49
2023/08/12 08:40:26;;;;;;;1.08;0.50;;;24.30;69.10;;;;;;6374316;27;20062;-52
2023/08/12 08:43:28;;;;;;;1.27;0.70;;;24.20;69.20;;;;;;6374200;27;20047;-54
2023/08/12 08:46:30;;;;;;;0.88;0.40;;;24.10;68.70;;;;;;6373509;27;20047;-49
2023/08/12 08:49:33;;;;;;;1.30;0.80;;;24.20;69.20;;;;;;6355652;27;20069;-50
2023/08/12 08:52:34;;;;;;;1.45;0.82;;;24.30;68.90;;;;;;6375244;27;20053;-49
2023/08/12 08:55:36;;;;;;;1.15;0.60;;;23.80;68.60;;;;;;6374610;27;20505;-50
2023/08/12 08:58:39;;;;;;;1.80;0.75;;;24.30;69.40;;;;;;6374638;27;20692;-50
2023/08/12 09:01:43;;;;;;;1.35;0.65;;;24.20;68.70;;;;;;6372635;27;20038;-53
2023/08/12 09:04:46;;;;;;;0.55;0.50;;;24.20;68.70;;;;;;6374812;27;20519;-48
2023/08/12 09:07:49;;;;;;;1.08;0.60;;;24.20;68.60;;;;;;6375001;27;20038;-52
2023/08/12 09:10:59;;;;;;;1.08;0.50;;;24.30;68.60;;;;;;6375604;27;20050;-53
2023/08/12 09:14:01;;;;;;;1.50;0.63;;;24.00;68.90;;;;;;6373624;27;20042;-49
2023/08/12 09:17:02;;;;;;;1.25;0.60;;;24.20;68.40;;;;;;6374022;27;20045;-53
2023/08/12 09:20:07;;;;;;;0.95;0.52;;;23.90;68.80;;;;;;6375761;27;20039;-48
2023/08/12 09:23:10;;;;;;;0.93;0.77;;;24.10;68.10;;;;;;6375063;27;20334;-51
2023/08/12 09:26:15;;;;;;;0.90;0.50;;;24.30;68.40;;;;;;6321383;27;20069;-51
2023/08/12 09:29:17;;;;;;;0.60;0.40;;;24.10;68.40;;;;;;6376268;27;20111;-52
2023/08/12 09:32:19;;;;;;;0.75;0.40;;;24.30;68.20;;;;;;6375909;27;20034;-53
2023/08/12 09:35:21;;;;;;;1.25;0.50;;;24.20;67.40;;;;;;6340676;27;20592;-51
2023/08/12 09:38:23;;;;;;;0.63;0.50;;;24.20;68.10;;;;;;6374359;27;20043;-49
2023/08/12 09:41:27;;;;;;;1.65;0.80;;;24.20;67.90;;;;;;6374380;27;20125;-52
2023/08/12 09:44:29;;;;;;;1.90;0.50;;;24.20;67.80;;;;;;6340995;27;20039;-48
2023/08/12 09:47:34;;;;;;;0.98;0.40;;;24.20;67.80;;;;;;6375618;27;20037;-53
2023/08/12 09:50:36;;;;;;;1.10;0.50;;;23.90;67.70;;;;;;6397656;27;20034;-51
2023/08/12 09:53:38;;;;;;;0.70;0.45;;;24.20;67.30;;;;;;6405120;27;20031;-53
2023/08/12 09:56:42;;;;;;;2.35;0.75;;;24.30;67.70;;;;;;6402746;27;20043;-50
2023/08/12 09:59:46;;;;;;;0.90;0.50;;;24.20;67.70;;;;;;6403959;27;20095;-52
2023/08/12 10:02:51;;;;;;;1.20;0.52;;;24.30;67.40;;;;;;6403694;27;20107;-53
2023/08/12 10:05:53;;;;;;;1.55;0.70;;;24.40;67.50;;;;;;6386021;27;20038;-53
2023/08/12 10:08:54;;;;;;;1.13;0.63;;;24.20;67.50;;;;;;6407208;27;20045;-51
2023/08/12 10:11:56;;;;;;;1.85;0.80;;;24.30;67.30;;;;;;6407909;27;20035;-49
2023/08/12 10:15:00;;;;;;;1.23;0.50;;;24.30;67.20;;;;;;6411489;27;20046;-50
2023/08/12 10:18:03;;;;;;;1.40;0.40;;;24.30;67.10;;;;;;6396199;27;20052;-53
2023/08/12 10:21:06;;;;;;;1.23;0.75;;;24.40;67.30;;;;;;6414265;27;20031;-52
2023/08/12 10:24:08;;;;;;;1.02;0.65;;;24.30;67.40;;;;;;6412825;27;20031;-49
2023/08/12 10:27:11;;;;;;;1.63;0.65;;;24.40;67.20;;;;;;6411738;27;20038;-52
2023/08/12 10:30:14;;;;;;;0.80;0.40;;;24.40;66.90;;;;;;6413571;27;20039;-52
2023/08/12 10:33:16;;;;;;;1.55;0.70;;;24.30;66.90;;;;;;6413302;27;20035;-48
2023/08/12 10:36:19;;;;;;;1.27;0.57;;;24.50;67.00;;;;;;6409906;27;20042;-48
2023/08/12 10:39:24;;;;;;;0.80;0.43;;;24.50;66.80;;;;;;6409576;27;20035;-50
2023/08/12 10:42:44;;;;;;;2.45;0.82;;;24.30;66.60;;;;;;6411347;27;20039;-51
2023/08/12 10:45:49;;;;;;;2.63;0.70;;;24.30;66.90;;;;;;6395684;27;20022;-52
2023/08/12 10:49:06;;;;;;;1.40;0.70;;;24.40;66.40;;;;;;6378047;27;20078;-53
2023/08/12 10:52:30;;;;;;;1.30;0.50;;;24.40;66.30;;;;;;6375038;27;20038;-52
2023/08/12 10:55:36;;;;;;;2.05;0.60;;;24.60;66.60;;;;;;6393442;27;20049;-50
2023/08/12 10:58:45;;;;;;;1.27;0.60;;;24.30;80.60;;;;;;6379673;27;20060;-52
2023/08/12 11:01:47;;;;;;;3.72;0.82;;;24.40;64.70;;;;;;6362853;27;20034;-51
2023/08/12 11:04:52;;;;;;;1.92;0.55;;;24.50;65.00;;;;;;6395399;27;20416;-51
2023/08/12 11:08:00;;;;;;;0.82;0.50;;;24.40;64.70;;;;;;6396227;27;20039;-52
2023/08/12 11:11:03;;;;;;;0.75;0.50;;;24.50;64.30;;;;;;6396398;27;20075;-51
2023/08/12 11:14:17;;;;;;;0.98;0.43;;;24.00;63.80;;;;;;6385995;27;20045;-52
2023/08/12 11:17:19;;;;;;;1.13;0.80;;;24.60;64.10;;;;;;6384849;27;20102;-53
2023/08/12 11:20:21;;;;;;;1.38;0.60;;;24.60;63.70;;;;;;6384427;27;20047;-53
2023/08/12 11:23:23;;;;;;;1.33;0.60;;;24.50;64.00;;;;;;6384668;27;20030;-54
2023/08/12 11:26:25;;;;;;;1.38;0.70;;;24.50;63.40;;;;;;6386255;27;20039;-53
2023/08/12 11:29:27;;;;;;;1.27;0.75;;;24.60;63.80;;;;;;6386649;27;20053;-52
2023/08/12 11:32:29;;;;;;;1.00;0.40;;;24.60;61.70;;;;;;6386120;27;20035;-53
2023/08/12 11:35:34;;;;;;;2.10;0.60;;;22.70;62.20;;;;;;6387778;27;20026;-52
2023/08/12 11:38:38;;;;;;;1.52;0.60;;;24.60;60.40;;;;;;6386834;27;20031;-53
2023/08/12 11:41:40;;;;;;;0.68;0.47;;;25.30;63.40;;;;;;6350471;27;20135;-53
2023/08/12 11:44:41;;;;;;;1.23;0.65;;;24.50;62.60;;;;;;6388008;27;20046;-53
2023/08/12 11:47:44;;;;;;;0.90;0.50;;;24.60;62.80;;;;;;6386548;27;20034;-53
2023/08/12 11:50:46;;;;;;;1.63;0.60;;;24.70;62.20;;;;;;6387485;27;20035;-51
2023/08/12 11:53:49;;;;;;;1.10;0.60;;;24.70;62.40;;;;;;6387161;27;20047;-52
2023/08/12 11:56:52;;;;;;;1.55;0.50;;;24.70;62.40;;;;;;6387363;27;20046;-50
2023/08/12 11:59:58;;;;;;;1.17;0.50;;;24.70;62.00;;;;;;6386918;27;20045;-53
2023/08/12 12:03:00;;;;;;;0.80;0.50;;;24.70;61.60;;;;;;6386661;27;20087;-52
2023/08/12 12:06:03;;;;;;;1.50;0.70;;;24.80;61.80;;;;;;6387058;27;20139;-50
2023/08/12 12:09:09;;;;;;;0.65;0.47;;;24.70;61.30;;;;;;6386560;27;20470;-52
2023/08/12 12:12:11;;;;;;;1.23;0.60;;;24.80;61.30;;;;;;6368332;27;20091;-52
2023/08/12 12:15:17;;;;;;;0.75;0.50;;;24.80;61.20;;;;;;6386625;27;20476;-52
2023/08/12 12:18:25;;;;;;;1.35;0.73;;;23.50;60.20;;;;;;6355076;27;20066;-53
2023/08/12 12:21:26;;;;;;;1.58;0.43;;;24.80;60.80;;;;;;6370330;27;20605;-51
2023/08/12 12:24:43;;;;;;;0.63;0.30;;;24.70;60.70;;;;;;6390902;27;20035;-50
2023/08/12 12:27:46;;;;;;;1.13;0.45;;;24.80;58.10;;;;;;6389580;27;20038;-53
2023/08/12 12:30:48;;;;;;;1.15;0.45;;;24.90;60.30;;;;;;6386778;27;20046;-52
2023/08/12 12:33:50;;;;;;;1.17;0.50;;;24.90;60.60;;;;;;6380423;27;20062;-53
2023/08/12 12:36:52;;;;;;;1.63;0.50;;;25.00;60.20;;;;;;6381742;27;20038;-53
2023/08/12 12:39:54;;;;;;;1.10;0.50;;;24.10;59.60;;;;;;6384959;27;20039;-53
2023/08/12 12:42:55;;;;;;;1.60;0.50;;;24.90;59.80;;;;;;6383970;27;20051;-51
2023/08/12 12:45:56;;;;;;;1.38;0.50;;;25.00;60.00;;;;;;6386148;27;20069;-53
2023/08/12 12:49:03;;;;;;;1.13;0.50;;;24.90;60.10;;;;;;6387382;27;20056;-53
2023/08/12 12:52:04;;;;;;;1.42;0.40;;;24.70;59.50;;;;;;6385036;27;20042;-52
2023/08/12 12:55:07;;;;;;;1.83;0.40;;;25.00;59.50;;;;;;6385143;27;20099;-52
2023/08/12 12:58:09;;;;;;;0.80;0.40;;;24.90;59.00;;;;;;6386685;27;20038;-50
2023/08/12 13:01:14;;;;;;;1.00;0.47;;;25.00;59.00;;;;;;6384393;27;20043;-53
2023/08/12 13:04:16;;;;;;;1.05;0.50;;;24.90;58.80;;;;;;6384648;27;20038;-52
2023/08/12 13:07:17;;;;;;;1.85;0.43;;;24.80;58.50;;;;;;6384315;27;20039;-52
2023/08/12 13:10:19;;;;;;;1.33;0.40;;;25.10;58.30;;;;;;6385899;27;20042;-50
2023/08/12 13:13:21;;;;;;;1.35;0.40;;;25.00;58.40;;;;;;6386209;27;20543;-53
2023/08/12 13:16:23;;;;;;;1.40;0.57;;;24.60;56.10;;;;;;6385654;27;20045;-53
2023/08/12 13:19:25;;;;;;;1.30;0.40;;;25.10;58.20;;;;;;6386664;27;20038;-53
2023/08/12 13:22:26;;;;;;;0.98;0.45;;;25.10;57.50;;;;;;6385923;27;20954;-52
2023/08/12 13:25:32;;;;;;;1.25;0.65;;;25.00;57.80;;;;;;6384874;27;20148;-52
2023/08/12 13:28:34;;;;;;;1.23;0.50;;;25.20;57.30;;;;;;6387811;27;20042;-53
2023/08/12 13:31:39;;;;;;;1.45;0.50;;;25.10;57.30;;;;;;6390585;27;20039;-53
2023/08/12 13:34:43;;;;;;;0.93;0.50;;;25.10;55.60;;;;;;6393456;27;20138;-52
2023/08/12 13:37:44;;;;;;;1.15;0.40;;;25.00;57.40;;;;;;6394109;27;20050;-52
2023/08/12 13:40:46;;;;;;;0.85;0.40;;;25.00;57.10;;;;;;6391205;27;20042;-51
2023/08/12 13:43:48;;;;;;;1.35;0.57;;;25.00;57.10;;;;;;6391701;27;20047;-52
2023/08/12 13:46:50;;;;;;;1.80;0.65;;;25.10;56.90;;;;;;6390723;27;20046;-52
2023/08/12 13:49:53;;;;;;;0.63;0.40;;;25.10;56.90;;;;;;6391944;27;20252;-53
2023/08/12 13:52:58;;;;;;;1.00;0.50;;;24.70;56.90;;;;;;6391283;27;20386;-53
2023/08/12 13:55:59;;;;;;;1.02;0.70;;;25.00;56.60;;;;;;6391960;27;20049;-52
2023/08/12 13:59:01;;;;;;;1.17;0.70;;;25.10;56.60;;;;;;6393247;27;20945;-47
2023/08/12 14:02:02;;;;;;;0.73;0.30;;;25.10;56.60;;;;;;6392218;27;20039;-52
2023/08/12 14:05:05;;;;;;;1.67;0.52;;;25.00;56.30;;;;;;6390969;27;20030;-51
2023/08/12 14:08:07;;;;;;;0.80;0.50;;;24.80;56.20;;;;;;6392021;27;20060;-52
2023/08/12 14:11:11;;;;;;;0.85;0.30;;;25.00;56.40;;;;;;6392966;27;20042;-51
2023/08/12 14:14:13;;;;;;;1.95;0.65;;;25.10;56.40;;;;;;6392405;27;20045;-50
2023/08/12 14:17:17;;;;;;;1.15;0.50;;;25.00;56.30;;;;;;6392914;27;20180;-53
2023/08/12 14:20:19;;;;;;;0.45;0.40;;;25.00;56.70;;;;;;6393046;27;20334;-53
2023/08/12 14:23:20;;;;;;;1.20;0.43;;;25.00;56.20;;;;;;6392643;27;20075;-53
2023/08/12 14:26:22;;;;;;;0.40;0.20;;;24.90;56.20;;;;;;6392388;27;20054;-51
2023/08/12 14:29:23;;;;;;;0.85;0.38;;;25.10;56.20;;;;;;6389904;27;20042;-49
2023/08/12 14:32:25;;;;;;;0.93;0.45;;;25.10;56.20;;;;;;6395208;27;20039;-52
2023/08/12 14:35:27;;;;;;;0.90;0.30;;;25.10;56.20;;;;;;6394710;27;20450;-53
2023/08/12 14:38:28;;;;;;;1.02;0.35;;;25.00;56.10;;;;;;6391687;27;20043;-52
2023/08/12 14:41:30;;;;;;;1.75;0.57;;;25.10;56.00;;;;;;6394198;27;20045;-52
2023/08/12 14:44:32;;;;;;;1.00;0.60;;;25.10;56.40;;;;;;6392152;27;20039;-53
2023/08/12 14:47:40;;;;;;;1.73;0.60;;;24.90;55.70;;;;;;6392355;27;20065;-52
2023/08/12 14:50:45;;;;;;;1.52;0.40;;;25.10;56.00;;;;;;6390360;27;20067;-52
2023/08/12 14:53:47;;;;;;;1.00;0.73;;;24.80;56.10;;;;;;6391773;27;20162;-51
2023/08/12 14:56:49;;;;;;;0.68;0.40;;;25.00;56.20;;;;;;6392236;27;20039;-52
2023/08/12 14:59:50;;;;;;;0.82;0.52;;;25.10;56.40;;;;;;6391797;27;20041;-52
2023/08/12 15:02:55;;;;;;;1.23;0.45;;;25.00;56.10;;;;;;6392357;27;20091;-52
2023/08/12 15:06:04;;;;;;;1.67;0.40;;;25.00;55.80;;;;;;6391102;27;20508;-52
2023/08/12 15:09:06;;;;;;;0.77;0.50;;;25.00;56.10;;;;;;6392485;27;20038;-49
2023/08/12 15:12:07;;;;;;;0.40;0.22;;;25.00;56.30;;;;;;6391206;27;20074;-51
2023/08/12 15:15:10;;;;;;;1.63;0.30;;;25.10;56.40;;;;;;6392786;27;20060;-51
2023/08/12 15:18:13;;;;;;;0.85;0.30;;;25.00;56.40;;;;;;6392159;27;20493;-52
2023/08/12 15:21:16;;;;;;;1.65;0.60;;;24.90;56.20;;;;;;6387626;27;20045;-53
2023/08/12 15:24:20;;;;;;;0.95;0.30;;;24.70;56.00;;;;;;6392562;27;20049;-52
2023/08/12 15:27:21;;;;;;;0.70;0.43;;;25.00;56.30;;;;;;6392510;27;20102;-52
2023/08/12 15:30:23;;;;;;;0.57;0.30;;;24.90;56.60;;;;;;6392463;27;20047;-51
2023/08/12 15:33:24;;;;;;;0.68;0.40;;;25.00;56.40;;;;;;6391842;27;20035;-53
2023/08/12 15:36:26;;;;;;;0.93;0.50;;;24.90;56.00;;;;;;6391640;27;20038;-49
2023/08/12 15:39:30;;;;;;;1.65;0.55;;;25.00;56.40;;;;;;6389348;27;20038;-53
2023/08/12 15:42:32;;;;;;;1.17;0.68;;;24.50;56.60;;;;;;6387047;27;20030;-52
2023/08/12 15:48:04;;;;;;;1.15;0.40;;;24.80;53.10;;;;;;6457556;27;20373;-52
2023/08/12 15:51:06;;;;;;;0.50;0.30;;;24.90;54.90;;;;;;6435766;27;20114;-51
2023/08/12 15:54:10;;;;;;;0.60;0.35;;;25.10;55.80;;;;;;6433842;27;20053;-53
2023/08/12 15:57:11;;;;;;;0.43;0.28;;;25.10;55.70;;;;;;6428453;27;20042;-53